createdAt,value
2023-03-26T00:02:23.583Z,99413.53
2023-03-26T00:04:53.360Z,99410.63
2023-03-26T00:07:21.313Z,99409.56
2023-03-26T00:09:49.183Z,99402.88
2023-03-26T00:12:17.236Z,99407.25
2023-03-26T00:14:45.045Z,99408.94
2023-03-26T00:17:12.955Z,99413.78
2023-03-26T00:19:40.885Z,99414.38
2023-03-26T00:22:11.200Z,99419.81
2023-03-26T00:24:39.616Z,99414.59
2023-03-26T00:27:08.860Z,99412.91
2023-03-26T00:29:36.735Z,99419.22
2023-03-26T00:32:06.457Z,99406.19
2023-03-26T00:34:35.561Z,99409.97
2023-03-26T00:37:03.601Z,99415.44
2023-03-26T00:39:35.782Z,99408.53
2023-03-26T00:42:07.498Z,99402.66
2023-03-26T00:44:35.647Z,99397.44
2023-03-26T00:47:03.700Z,99393.00
2023-03-26T00:49:32.055Z,99402.88
2023-03-26T00:51:59.940Z,99406.63
2023-03-26T00:54:28.540Z,99402.00
2023-03-26T00:56:56.413Z,99387.78
2023-03-26T00:59:24.248Z,99402.00
2023-03-26T01:01:55.267Z,99399.09
2023-03-26T01:04:28.163Z,99401.19
2023-03-26T01:06:56.924Z,99402.25
2023-03-26T01:09:25.159Z,99397.81
2023-03-26T01:11:53.086Z,99402.66
2023-03-26T01:14:21.322Z,99399.06
2023-03-26T01:16:50.079Z,99395.53
2023-03-26T01:19:18.067Z,99400.78
2023-03-26T01:21:47.349Z,99398.25
2023-03-26T01:24:15.401Z,99396.16
2023-03-26T01:26:43.413Z,99391.13
2023-03-26T01:29:11.275Z,99401.59
2023-03-26T01:31:39.730Z,99394.50
2023-03-26T01:34:07.609Z,99390.31
2023-03-26T01:36:35.546Z,99400.38
2023-03-26T01:39:03.733Z,99393.84
2023-03-26T01:41:31.754Z,99391.34
2023-03-26T01:43:59.699Z,99386.94
2023-03-26T01:46:27.658Z,99397.00
2023-03-26T01:48:55.800Z,99394.72
2023-03-26T01:51:23.599Z,99397.00
2023-03-26T01:53:51.429Z,99385.06
2023-03-26T01:56:19.337Z,99386.13
2023-03-26T01:58:47.408Z,99389.25
2023-03-26T02:01:16.906Z,99382.97
2023-03-26T02:03:45.101Z,99379.41
2023-03-26T02:06:15.880Z,99381.31
2023-03-26T02:08:43.721Z,99396.78
2023-03-26T02:11:13.256Z,99385.69
2023-03-26T02:13:41.208Z,99385.69
2023-03-26T02:16:09.125Z,99386.75
2023-03-26T02:18:39.285Z,99386.75
2023-03-26T02:21:07.200Z,99384.63
2023-03-26T02:23:36.014Z,99391.13
2023-03-26T02:26:03.904Z,99390.94
2023-03-26T02:28:32.924Z,99379.41
2023-03-26T02:31:02.025Z,99384.84
2023-03-26T02:33:29.930Z,99377.50
2023-03-26T02:35:59.547Z,99375.66
2023-03-26T02:38:27.772Z,99375.00
2023-03-26T02:40:55.838Z,99379.59
2023-03-26T02:43:28.126Z,99370.59
2023-03-26T02:45:56.367Z,99380.66
2023-03-26T02:48:24.508Z,99376.06
2023-03-26T02:50:54.452Z,99382.31
2023-03-26T02:53:24.282Z,99381.91
2023-03-26T02:55:52.267Z,99373.75
2023-03-26T02:58:20.315Z,99373.75
2023-03-26T03:00:50.876Z,99377.31
2023-03-26T03:03:18.867Z,99377.94
2023-03-26T03:05:46.856Z,99380.88
2023-03-26T03:08:14.771Z,99376.03
2023-03-26T03:10:42.610Z,99374.78
2023-03-26T03:13:10.605Z,99373.75
2023-03-26T03:15:38.448Z,99373.09
2023-03-26T03:18:06.385Z,99372.28
2023-03-26T03:20:35.304Z,99368.09
2023-03-26T03:23:03.369Z,99364.94
2023-03-26T03:25:32.645Z,99359.50
2023-03-26T03:28:00.516Z,99354.91
2023-03-26T03:30:28.587Z,99362.22
2023-03-26T03:32:58.519Z,99353.03
2023-03-26T03:35:27.813Z,99348.00
2023-03-26T03:37:55.622Z,99350.72
2023-03-26T03:40:23.447Z,99346.94
2023-03-26T03:42:51.543Z,99353.44
2023-03-26T03:45:19.340Z,99352.19
2023-03-26T03:47:47.125Z,99343.78
2023-03-26T03:50:15.067Z,99346.75
2023-03-26T03:52:42.935Z,99354.28
2023-03-26T03:55:11.248Z,99354.06
2023-03-26T03:57:39.306Z,99347.16
2023-03-26T04:00:11.864Z,99348.19
2023-03-26T04:02:43.200Z,99356.34
2023-03-26T04:05:12.037Z,99354.50
2023-03-26T04:07:39.861Z,99347.97
2023-03-26T04:10:07.727Z,99353.44
2023-03-26T04:12:35.758Z,99359.50
2023-03-26T04:15:03.636Z,99360.53
2023-03-26T04:17:31.542Z,99355.31
2023-03-26T04:20:07.345Z,99366.84
2023-03-26T04:22:36.665Z,99359.50
2023-03-26T04:25:05.435Z,99364.94
2023-03-26T04:27:35.487Z,99362.22
2023-03-26T04:30:03.437Z,99361.16
2023-03-26T04:32:34.208Z,99357.41
2023-03-26T04:35:04.004Z,99361.78
2023-03-26T04:37:34.424Z,99361.78
2023-03-26T04:40:02.509Z,99360.34
2023-03-26T04:42:30.415Z,99363.06
2023-03-26T04:44:59.940Z,99354.69
2023-03-26T04:47:29.042Z,99349.25
2023-03-26T04:49:56.876Z,99349.66
2023-03-26T04:52:24.911Z,99343.78
2023-03-26T04:54:52.759Z,99350.91
2023-03-26T04:57:20.635Z,99348.41
2023-03-26T04:59:48.481Z,99345.47
2023-03-26T05:02:18.258Z,99360.13
2023-03-26T05:04:46.368Z,99354.47
2023-03-26T05:07:14.375Z,99359.28
2023-03-26T05:09:42.330Z,99353.84
2023-03-26T05:12:10.205Z,99357.63
2023-03-26T05:14:38.090Z,99355.50
2023-03-26T05:17:06.286Z,99358.66
2023-03-26T05:19:34.060Z,99358.03
2023-03-26T05:22:02.562Z,99354.22
2023-03-26T05:24:30.589Z,99356.03
2023-03-26T05:26:58.439Z,99354.50
2023-03-26T05:29:27.178Z,99365.63
2023-03-26T05:31:55.008Z,99363.06
2023-03-26T05:34:24.993Z,99358.00
2023-03-26T05:36:53.101Z,99370.38
2023-03-26T05:39:25.749Z,99361.38
2023-03-26T05:41:56.626Z,99347.72
2023-03-26T05:44:24.452Z,99360.50
2023-03-26T05:46:52.382Z,99359.03
2023-03-26T05:49:20.461Z,99360.56
2023-03-26T05:51:48.317Z,99354.47
2023-03-26T05:54:16.152Z,99363.28
2023-03-26T05:56:44.046Z,99352.81
2023-03-26T05:59:11.956Z,99349.44
2023-03-26T06:01:39.864Z,99346.94
2023-03-26T06:04:07.904Z,99337.75
2023-03-26T06:06:35.949Z,99337.94
2023-03-26T06:09:04.629Z,99335.88
2023-03-26T06:11:32.867Z,99338.19
2023-03-26T06:14:00.768Z,99337.19
2023-03-26T06:16:28.766Z,99336.16
2023-03-26T06:18:57.284Z,99338.69
2023-03-26T06:21:25.890Z,99346.66
2023-03-26T06:23:53.916Z,99346.88
2023-03-26T06:26:21.849Z,99336.59
2023-03-26T06:28:49.756Z,99336.41
2023-03-26T06:31:19.275Z,99327.63
2023-03-26T06:33:48.844Z,99334.13
2023-03-26T06:36:16.834Z,99331.19
2023-03-26T06:38:44.702Z,99328.47
2023-03-26T06:41:12.711Z,99332.88
2023-03-26T06:43:40.594Z,99336.84
2023-03-26T06:46:08.584Z,99331.97
2023-03-26T06:48:36.484Z,99331.69
2023-03-26T06:51:04.377Z,99332.50
2023-03-26T06:53:32.712Z,99331.66
2023-03-26T06:56:00.824Z,99322.72
2023-03-26T06:58:29.335Z,99330.91
2023-03-26T07:00:57.563Z,99324.22
2023-03-26T07:03:25.724Z,99330.91
2023-03-26T07:05:53.828Z,99327.97
2023-03-26T07:08:22.528Z,99327.97
2023-03-26T07:10:52.193Z,99330.91
2023-03-26T07:13:20.608Z,99332.19
2023-03-26T07:15:50.262Z,99332.63
2023-03-26T07:18:18.426Z,99325.31
2023-03-26T07:20:46.615Z,99320.00
2023-03-26T07:23:17.025Z,99318.34
2023-03-26T07:25:45.402Z,99319.63
2023-03-26T07:28:13.558Z,99313.53
2023-03-26T07:30:41.469Z,99316.50
2023-03-26T07:33:09.628Z,99311.47
2023-03-26T07:35:38.574Z,99307.06
2023-03-26T07:38:06.850Z,99309.78
2023-03-26T07:40:34.892Z,99301.81
2023-03-26T07:43:03.370Z,99305.59
2023-03-26T07:45:33.124Z,99306.44
2023-03-26T07:48:01.301Z,99304.09
2023-03-26T07:50:29.263Z,99295.91
2023-03-26T07:52:57.373Z,99293.00
2023-03-26T07:55:25.598Z,99286.72
2023-03-26T07:57:54.160Z,99282.28
2023-03-26T08:00:22.315Z,99288.38
2023-03-26T08:02:50.382Z,99289.63
2023-03-26T08:05:19.853Z,99282.97
2023-03-26T08:07:47.971Z,99280.00
2023-03-26T08:10:16.138Z,99281.91
2023-03-26T08:12:44.539Z,99280.00
2023-03-26T08:15:12.552Z,99269.94
2023-03-26T08:17:40.680Z,99275.81
2023-03-26T08:20:09.572Z,99268.66
2023-03-26T08:22:38.639Z,99267.63
2023-03-26T08:25:06.792Z,99261.13
2023-03-26T08:27:37.551Z,99266.56
2023-03-26T08:30:05.635Z,99262.56
2023-03-26T08:32:33.624Z,99256.50
2023-03-26T08:35:05.187Z,99258.59
2023-03-26T08:37:33.330Z,99258.59
2023-03-26T08:40:01.767Z,99259.22
2023-03-26T08:42:29.855Z,99253.56
2023-03-26T08:44:58.179Z,99248.13
2023-03-26T08:47:26.455Z,99250.59
2023-03-26T08:49:54.503Z,99246.78
2023-03-26T08:52:23.271Z,99238.63
2023-03-26T08:54:51.277Z,99241.34
2023-03-26T08:57:19.394Z,99236.75
2023-03-26T08:59:49.972Z,99241.34
2023-03-26T09:02:18.357Z,99237.78
2023-03-26T09:04:47.010Z,99227.72
2023-03-26T09:07:16.838Z,99238.63
2023-03-26T09:09:45.302Z,99230.44
2023-03-26T09:12:13.392Z,99228.34
2023-03-26T09:14:42.110Z,99222.69
2023-03-26T09:17:10.094Z,99221.63
2023-03-26T09:19:38.648Z,99221.00
2023-03-26T09:22:06.673Z,99216.81
2023-03-26T09:24:34.686Z,99218.09
2023-03-26T09:27:02.894Z,99221.44
2023-03-26T09:29:32.791Z,99217.66
2023-03-26T09:32:02.654Z,99222.88
2023-03-26T09:34:31.703Z,99214.50
2023-03-26T09:36:59.817Z,99216.41
2023-03-26T09:39:28.125Z,99216.41
2023-03-26T09:41:56.257Z,99217.44
2023-03-26T09:44:24.336Z,99212.41
2023-03-26T09:46:52.394Z,99203.97
2023-03-26T09:49:21.681Z,99216.13
2023-03-26T09:51:49.736Z,99206.25
2023-03-26T09:54:18.319Z,99213.22
2023-03-26T09:56:46.398Z,99200.03
2023-03-26T09:59:14.408Z,99201.06
2023-03-26T10:01:42.608Z,99194.78
2023-03-26T10:04:10.736Z,99183.06
2023-03-26T10:06:38.991Z,99191.88
2023-03-26T10:09:06.921Z,99183.88
2023-03-26T10:11:35.049Z,99183.81
2023-03-26T10:14:03.970Z,99170.78
2023-03-26T10:16:32.062Z,99168.06
2023-03-26T10:19:00.120Z,99161.59
2023-03-26T10:21:28.582Z,99154.88
2023-03-26T10:23:57.296Z,99147.56
2023-03-26T10:26:27.981Z,99136.66
2023-03-26T10:28:56.962Z,99133.09
2023-03-26T10:31:26.246Z,99140.66
2023-03-26T10:33:54.274Z,99138.78
2023-03-26T10:36:22.347Z,99146.13
2023-03-26T10:38:50.621Z,99140.91
2023-03-26T10:41:18.661Z,99140.06
2023-03-26T10:43:57.801Z,99134.63
2023-03-26T10:46:29.538Z,99136.91
2023-03-26T10:49:01.113Z,99132.91
2023-03-26T10:51:29.114Z,99131.00
2023-03-26T10:53:57.388Z,99130.56
2023-03-26T10:56:26.831Z,99127.16
2023-03-26T10:58:54.860Z,99130.50
2023-03-26T11:01:23.095Z,99123.78
2023-03-26T11:03:52.222Z,99120.59
2023-03-26T11:06:20.298Z,99119.34
2023-03-26T11:08:49.090Z,99124.56
2023-03-26T11:11:17.119Z,99124.56
2023-03-26T11:13:45.119Z,99121.25
2023-03-26T11:16:13.249Z,99123.34
2023-03-26T11:18:41.588Z,99120.81
2023-03-26T11:21:18.746Z,99118.34
2023-03-26T11:23:48.403Z,99126.72
2023-03-26T11:26:33.573Z,99122.09
2023-03-26T11:29:03.789Z,99124.00
2023-03-26T11:31:49.720Z,99120.03
2023-03-26T11:34:17.802Z,99119.66
2023-03-26T11:36:47.016Z,99120.47
2023-03-26T11:39:15.504Z,99119.19
2023-03-26T11:41:43.573Z,99117.09
2023-03-26T11:44:11.507Z,99114.19
2023-03-26T11:46:39.723Z,99113.75
2023-03-26T11:49:09.350Z,99106.63
2023-03-26T11:51:37.451Z,99110.63
2023-03-26T11:54:06.575Z,99107.09
2023-03-26T11:56:34.735Z,99105.41
2023-03-26T11:59:03.123Z,99107.53
2023-03-26T12:01:31.358Z,99111.84
2023-03-26T12:04:00.497Z,99110.59
2023-03-26T12:06:29.194Z,99105.16
2023-03-26T12:08:57.996Z,99103.78
2023-03-26T12:11:27.320Z,99105.72
2023-03-26T12:13:55.335Z,99093.88
2023-03-26T12:16:23.585Z,99088.28
2023-03-26T12:18:51.518Z,99088.59
2023-03-26T12:21:19.491Z,99086.03
2023-03-26T12:23:48.437Z,99071.69
2023-03-26T12:26:16.663Z,99065.56
2023-03-26T12:28:44.532Z,99062.38
2023-03-26T12:31:12.385Z,99064.50
2023-03-26T12:33:40.647Z,99069.13
2023-03-26T12:36:08.506Z,99071.47
2023-03-26T12:38:37.631Z,99075.69
2023-03-26T12:41:05.955Z,99082.69
2023-03-26T12:44:46.260Z,99090.50
2023-03-26T12:47:55.382Z,99100.41
2023-03-26T12:49:11.523Z,99099.81
2023-03-26T12:51:40.397Z,99090.41
2023-03-26T12:54:09.861Z,99092.97
2023-03-26T12:56:38.928Z,99088.78
2023-03-26T12:59:07.075Z,99085.06
2023-03-26T13:01:35.034Z,99086.13
2023-03-26T13:04:07.718Z,99089.28
2023-03-26T13:06:48.565Z,99083.84
2023-03-26T13:09:24.133Z,99081.56
2023-03-26T13:11:52.213Z,99068.38
2023-03-26T13:14:20.458Z,99064.75
2023-03-26T13:16:48.304Z,99057.63
2023-03-26T13:19:16.130Z,99058.28
2023-03-26T13:21:45.305Z,99061.66
2023-03-26T13:24:13.110Z,99061.97
2023-03-26T13:26:41.231Z,99070.19
2023-03-26T13:29:09.014Z,99060.88
2023-03-26T13:31:36.892Z,99060.03
2023-03-26T13:34:05.070Z,99052.53
2023-03-26T13:36:33.218Z,99060.34
2023-03-26T13:39:03.557Z,99060.19
2023-03-26T13:41:31.655Z,99050.56
2023-03-26T13:43:59.542Z,99055.59
2023-03-26T13:46:27.536Z,99052.13
2023-03-26T13:48:56.091Z,99051.28
2023-03-26T13:51:24.113Z,99050.22
2023-03-26T13:53:51.986Z,99046.88
2023-03-26T13:56:19.914Z,99041.88
2023-03-26T13:58:47.984Z,99049.66
2023-03-26T14:01:16.938Z,99055.81
2023-03-26T14:03:45.569Z,99051.38
2023-03-26T14:06:13.716Z,99051.59
2023-03-26T14:08:42.115Z,99053.25
2023-03-26T14:11:11.039Z,99045.28
2023-03-26T14:13:39.048Z,99049.53
2023-03-26T14:16:07.133Z,99051.19
2023-03-26T14:18:35.022Z,99050.59
2023-03-26T14:21:02.892Z,99049.59
2023-03-26T14:23:31.180Z,99050.88
2023-03-26T14:25:59.066Z,99056.94
2023-03-26T14:28:26.912Z,99047.16
2023-03-26T14:30:56.438Z,99044.81
2023-03-26T14:33:27.866Z,99046.50
2023-03-26T14:35:56.256Z,99043.75
2023-03-26T14:38:24.288Z,99044.59
2023-03-26T14:40:52.124Z,99041.66
2023-03-26T14:43:20.902Z,99046.03
2023-03-26T14:45:48.729Z,99043.75
2023-03-26T14:48:16.967Z,99047.56
2023-03-26T14:50:46.706Z,99044.22
2023-03-26T14:53:14.941Z,99037.31
2023-03-26T14:55:42.826Z,99042.34
2023-03-26T14:58:10.758Z,99050.97
2023-03-26T15:00:39.012Z,99043.03
2023-03-26T15:03:07.597Z,99047.06
2023-03-26T15:05:35.603Z,99045.38
2023-03-26T15:08:03.563Z,99038.25
2023-03-26T15:10:32.313Z,99037.44
2023-03-26T15:13:00.149Z,99035.53
2023-03-26T15:15:28.002Z,99034.91
2023-03-26T15:17:56.264Z,99042.47
2023-03-26T15:20:26.172Z,99039.75
2023-03-26T15:22:54.095Z,99045.63
2023-03-26T15:25:22.413Z,99046.44
2023-03-26T15:27:50.373Z,99037.19
2023-03-26T15:30:18.209Z,99030.69
2023-03-26T15:35:38.053Z,99031.06
2023-03-26T15:38:05.929Z,99034.00
2023-03-26T15:40:34.162Z,99036.72
2023-03-26T15:43:02.189Z,99031.81
2023-03-26T15:45:30.113Z,99037.47
2023-03-26T15:47:58.226Z,99024.22
2023-03-26T15:50:26.243Z,99028.84
2023-03-26T15:52:54.408Z,99027.19
2023-03-26T15:55:22.354Z,99026.34
2023-03-26T15:57:51.210Z,99033.09
2023-03-26T16:00:22.489Z,99023.22
2023-03-26T16:02:53.872Z,99025.19
2023-03-26T16:05:22.506Z,99029.19
2023-03-26T16:07:50.307Z,99020.16
2023-03-26T16:10:18.497Z,99025.00
2023-03-26T16:12:46.330Z,99019.56
2023-03-26T16:15:14.293Z,99027.31
2023-03-26T16:17:42.415Z,99028.38
2023-03-26T16:20:10.357Z,99021.88
2023-03-26T16:22:42.780Z,99026.03
2023-03-26T16:25:28.761Z,99019.16
2023-03-26T16:27:57.796Z,99020.25
2023-03-26T16:30:25.596Z,99020.69
2023-03-26T16:32:56.181Z,99020.50
2023-03-26T16:35:24.207Z,99014.41
2023-03-26T16:37:52.046Z,99023.25
2023-03-26T16:40:20.588Z,99025.13
2023-03-26T16:42:48.444Z,99016.13
2023-03-26T16:45:17.718Z,99014.88
2023-03-26T16:47:45.839Z,99012.34
2023-03-26T16:50:13.935Z,99018.25
2023-03-26T16:52:42.936Z,99017.63
2023-03-26T16:55:10.774Z,99014.44
2023-03-26T16:57:39.837Z,99012.19
2023-03-26T17:00:08.312Z,99016.13
2023-03-26T17:02:37.687Z,99006.34
2023-03-26T17:05:05.707Z,99014.50
2023-03-26T17:07:33.877Z,99012.63
2023-03-26T17:10:01.893Z,99017.22
2023-03-26T17:12:29.691Z,99017.22
2023-03-26T17:14:57.742Z,99021.84
2023-03-26T17:17:26.038Z,99018.28
2023-03-26T17:19:54.308Z,99024.53
2023-03-26T17:22:28.308Z,99026.03
2023-03-26T17:24:56.374Z,99023.69
2023-03-26T17:27:25.051Z,99024.38
2023-03-26T17:29:53.406Z,99029.13
2023-03-26T17:32:21.601Z,99038.38
2023-03-26T17:34:49.924Z,99032.88
2023-03-26T17:37:18.892Z,99036.59
2023-03-26T17:39:47.114Z,99035.38
2023-03-26T17:42:15.683Z,99034.94
2023-03-26T17:44:43.676Z,99042.09
2023-03-26T17:47:11.655Z,99036.69
2023-03-26T17:49:41.131Z,99043.38
2023-03-26T17:52:10.202Z,99049.25
2023-03-26T17:54:41.414Z,99046.53
2023-03-26T17:57:10.421Z,99044.22
2023-03-26T17:59:39.320Z,99044.22
2023-03-26T18:02:07.626Z,99036.47
2023-03-26T18:04:35.772Z,99046.75
2023-03-26T18:07:04.457Z,99045.53
2023-03-26T18:09:33.454Z,99053.69
2023-03-26T18:12:02.700Z,99057.63
2023-03-26T18:14:34.677Z,99048.88
2023-03-26T18:19:32.012Z,99049.69
2023-03-26T18:21:59.889Z,99044.28
2023-03-26T18:24:27.791Z,99053.28
2023-03-26T18:26:55.601Z,99043.88
2023-03-26T18:29:24.390Z,99046.00
2023-03-26T18:31:52.256Z,99048.09
2023-03-26T18:34:20.146Z,99046.22
2023-03-26T18:36:48.271Z,99049.16
2023-03-26T18:39:17.098Z,99048.53
2023-03-26T18:41:44.926Z,99050.22
2023-03-26T18:44:13.025Z,99047.25
2023-03-26T18:46:41.270Z,99052.06
2023-03-26T18:49:09.090Z,99049.59
2023-03-26T18:51:46.345Z,99043.50
2023-03-26T18:54:14.396Z,99043.91
2023-03-26T18:56:42.405Z,99044.53
2023-03-26T18:59:12.222Z,99040.34
2023-03-26T19:01:40.252Z,99044.34
2023-03-26T19:04:08.312Z,99047.69
2023-03-26T19:06:38.480Z,99044.31
2023-03-26T19:09:16.323Z,99039.72
2023-03-26T19:11:47.795Z,99038.28
2023-03-26T19:14:17.120Z,99044.34
2023-03-26T19:16:45.076Z,99037.25
2023-03-26T19:19:13.004Z,99037.69
2023-03-26T19:21:41.500Z,99035.56
2023-03-26T19:24:09.395Z,99037.69
2023-03-26T19:26:37.982Z,99043.97
2023-03-26T19:29:05.912Z,99037.69
2023-03-26T19:31:33.799Z,99033.91
2023-03-26T19:34:01.729Z,99037.69
2023-03-26T19:36:30.438Z,99042.28
2023-03-26T19:38:58.363Z,99036.03
2023-03-26T19:41:26.670Z,99038.34
2023-03-26T19:43:55.934Z,99034.34
2023-03-26T19:46:24.008Z,99034.41
2023-03-26T19:48:54.299Z,99040.28
2023-03-26T19:51:22.248Z,99038.59
2023-03-26T19:53:50.373Z,99033.59
2023-03-26T19:56:18.670Z,99032.75
2023-03-26T19:58:46.587Z,99031.06
2023-03-26T20:01:14.443Z,99027.91
2023-03-26T20:03:42.278Z,99023.94
2023-03-26T20:06:10.329Z,99028.53
2023-03-26T20:08:40.703Z,99031.50
2023-03-26T20:11:08.469Z,99022.25
2023-03-26T20:13:36.425Z,99028.78
2023-03-26T20:16:05.771Z,99028.16
2023-03-26T20:18:34.200Z,99021.44
2023-03-26T20:21:02.105Z,99023.56
2023-03-26T20:23:30.606Z,99017.28
2023-03-26T20:25:58.582Z,99020.88
2023-03-26T20:28:26.545Z,99021.69
2023-03-26T20:30:55.496Z,99026.94
2023-03-26T20:33:25.410Z,99026.09
2023-03-26T20:35:53.658Z,99028.41
2023-03-26T20:38:26.483Z,99026.09
2023-03-26T20:41:01.025Z,99025.91
2023-03-26T20:43:30.413Z,99028.19
2023-03-26T20:45:58.689Z,99026.34
2023-03-26T20:48:27.182Z,99029.28
2023-03-26T20:50:54.992Z,99028.00
2023-03-26T20:53:23.738Z,99031.97
2023-03-26T20:55:51.860Z,99029.06
2023-03-26T20:58:30.976Z,99032.19
2023-03-26T21:01:00.466Z,99024.88
2023-03-26T21:03:28.583Z,99023.44
2023-03-26T21:05:56.455Z,99027.19
2023-03-26T21:08:30.188Z,99026.78
2023-03-26T21:10:58.860Z,99029.28
2023-03-26T21:13:26.725Z,99031.16
2023-03-26T21:15:54.696Z,99029.06
2023-03-26T21:18:22.620Z,99029.50
2023-03-26T21:20:50.437Z,99032.44
2023-03-26T21:23:18.334Z,99033.69
2023-03-26T21:25:46.129Z,99045.38
2023-03-26T21:28:17.479Z,99045.00
2023-03-26T21:30:47.094Z,99032.19
2023-03-26T21:33:14.914Z,99052.91
2023-03-26T21:35:44.774Z,99045.19
2023-03-26T21:38:12.753Z,99043.72
2023-03-26T21:40:49.694Z,99051.47
2023-03-26T21:43:24.469Z,99055.88
2023-03-26T21:45:54.133Z,99048.31
2023-03-26T21:48:24.323Z,99048.50
2023-03-26T21:50:52.344Z,99057.97
2023-03-26T21:53:20.190Z,99055.22
2023-03-26T21:55:48.026Z,99050.84
2023-03-26T21:58:15.836Z,99051.69
2023-03-26T22:00:44.024Z,99057.53
2023-03-26T22:03:12.100Z,99061.31
2023-03-26T22:05:40.098Z,99063.16
2023-03-26T22:08:08.174Z,99071.75
2023-03-26T22:10:37.211Z,99072.19
2023-03-26T22:13:05.082Z,99073.03
2023-03-26T22:15:34.043Z,99080.13
2023-03-26T22:18:01.955Z,99084.53
2023-03-26T22:20:29.885Z,99080.97
2023-03-26T22:22:59.044Z,99082.22
2023-03-26T22:25:27.617Z,99086.19
2023-03-26T22:27:55.459Z,99096.44
2023-03-26T22:30:23.333Z,99094.13
2023-03-26T22:32:51.897Z,99105.22
2023-03-26T22:35:19.975Z,99114.44
2023-03-26T22:37:47.847Z,99109.63
2023-03-26T22:40:16.225Z,99117.16
2023-03-26T22:42:44.117Z,99114.03
2023-03-26T22:45:11.972Z,99124.03
2023-03-26T22:47:40.161Z,99138.88
2023-03-26T22:50:08.242Z,99135.78
2023-03-26T22:52:36.076Z,99139.75
2023-03-26T22:55:04.819Z,99147.91
2023-03-26T22:57:32.656Z,99145.19
2023-03-26T23:00:12.220Z,99160.41
2023-03-26T23:02:40.054Z,99159.81
2023-03-26T23:05:07.910Z,99171.72
2023-03-26T23:07:35.715Z,99178.84
2023-03-26T23:10:03.547Z,99185.13
2023-03-26T23:12:31.476Z,99185.91
2023-03-26T23:14:59.396Z,99198.91
2023-03-26T23:17:27.257Z,99202.47
2023-03-26T23:19:55.642Z,99210.63
2023-03-26T23:22:23.484Z,99211.22
2023-03-26T23:24:53.797Z,99222.31
2023-03-26T23:27:22.511Z,99221.88
2023-03-26T23:29:50.578Z,99233.81
2023-03-26T23:32:24.085Z,99246.13
2023-03-26T23:34:53.120Z,99247.97
2023-03-26T23:37:23.442Z,99251.53
2023-03-26T23:39:51.442Z,99259.69
2023-03-26T23:42:29.155Z,99266.97
2023-03-26T23:44:57.699Z,99272.00
2023-03-26T23:47:25.779Z,99274.91
2023-03-26T23:49:53.673Z,99277.84
2023-03-26T23:52:21.714Z,99277.44
2023-03-26T23:54:49.565Z,99286.81
2023-03-26T23:57:18.557Z,99285.13
2023-03-26T23:59:46.414Z,99292.88
